createdAt,value
2022-11-03T00:01:56.597Z,1.80
2022-11-03T00:07:00.156Z,2.03
2022-11-03T00:12:03.307Z,2.10
2022-11-03T00:17:06.704Z,2.37
2022-11-03T00:22:09.545Z,2.20
2022-11-03T00:27:12.861Z,1.80
2022-11-03T00:32:15.763Z,2.00
2022-11-03T00:37:19.078Z,1.90
2022-11-03T00:42:22.014Z,1.63
2022-11-03T00:47:24.868Z,2.20
2022-11-03T00:52:27.729Z,1.97
2022-11-03T00:57:30.640Z,2.33
2022-11-03T01:02:33.527Z,2.00
2022-11-03T01:07:36.449Z,2.27
2022-11-03T01:12:39.187Z,2.23
2022-11-03T01:17:41.886Z,1.70
2022-11-03T01:22:44.585Z,1.83
2022-11-03T01:27:47.773Z,2.43
2022-11-03T01:32:50.504Z,1.77
2022-11-03T01:37:54.639Z,2.00
2022-11-03T01:43:15.131Z,2.07
2022-11-03T01:48:18.624Z,2.30
2022-11-03T01:53:22.185Z,2.50
2022-11-03T01:58:30.610Z,1.73
2022-11-03T02:03:36.955Z,2.13
2022-11-03T02:09:04.886Z,2.03
2022-11-03T02:14:12.745Z,2.00
2022-11-03T02:19:35.228Z,2.27
2022-11-03T02:24:54.085Z,2.37
2022-11-03T02:29:59.119Z,2.10
2022-11-03T02:35:17.663Z,2.30
2022-11-03T02:40:34.750Z,2.70
2022-11-03T02:45:37.949Z,2.27
2022-11-03T02:50:40.753Z,2.50
2022-11-03T02:55:58.559Z,2.73
2022-11-03T03:01:19.106Z,2.63
2022-11-03T03:06:45.428Z,3.13
2022-11-03T03:11:49.518Z,2.70
2022-11-03T03:17:15.744Z,2.70
2022-11-03T03:22:33.437Z,3.00
2022-11-03T03:27:40.198Z,2.70
2022-11-03T03:32:51.361Z,2.47
2022-11-03T03:37:58.551Z,2.80
2022-11-03T03:43:02.684Z,3.30
2022-11-03T03:48:06.649Z,3.13
2022-11-03T03:53:12.076Z,3.53
2022-11-03T03:58:15.885Z,3.17
2022-11-03T04:03:20.988Z,3.00
2022-11-03T04:08:24.103Z,3.33
2022-11-03T04:13:45.208Z,3.17
2022-11-03T04:19:06.963Z,3.50
2022-11-03T04:24:09.909Z,3.47
2022-11-03T04:29:12.699Z,3.20
2022-11-03T04:34:15.632Z,3.20
2022-11-03T04:39:21.644Z,3.80
2022-11-03T04:44:24.448Z,3.93
2022-11-03T04:49:27.443Z,3.60
2022-11-03T04:54:30.371Z,4.13
2022-11-03T04:59:33.767Z,3.40
2022-11-03T05:04:36.520Z,3.73
2022-11-03T05:09:42.815Z,3.60
2022-11-03T05:14:46.097Z,4.10
2022-11-03T05:19:49.268Z,3.90
2022-11-03T05:24:56.878Z,5.23
2022-11-03T05:30:01.108Z,4.73
2022-11-03T05:35:04.790Z,4.70
2022-11-03T05:40:37.332Z,4.83
2022-11-03T05:45:40.404Z,4.60
2022-11-03T05:50:43.398Z,19.53
2022-11-03T05:55:46.210Z,5.20
2022-11-03T06:00:49.165Z,5.27
2022-11-03T06:05:53.117Z,4.77
2022-11-03T06:10:57.633Z,4.60
2022-11-03T06:16:22.792Z,10.47
2022-11-03T06:21:26.784Z,4.80
2022-11-03T06:26:31.343Z,5.27
2022-11-03T06:31:34.492Z,5.43
2022-11-03T06:36:38.141Z,4.50
2022-11-03T06:41:41.166Z,4.40
2022-11-03T06:46:44.221Z,4.20
2022-11-03T06:51:49.323Z,3.73
2022-11-03T06:56:52.527Z,4.10
2022-11-03T07:01:55.956Z,3.40
2022-11-03T07:07:01.457Z,3.83
2022-11-03T07:12:11.680Z,4.57
2022-11-03T07:17:17.041Z,4.67
2022-11-03T07:22:23.157Z,4.63
2022-11-03T07:27:29.874Z,3.87
2022-11-03T07:32:34.131Z,3.63
2022-11-03T07:37:37.292Z,3.00
2022-11-03T07:42:40.113Z,3.80
2022-11-03T07:47:44.303Z,3.03
2022-11-03T07:52:47.231Z,4.10
2022-11-03T07:57:50.258Z,3.87
2022-11-03T08:02:57.359Z,4.03
2022-11-03T08:08:00.169Z,3.73
2022-11-03T08:13:03.071Z,3.77
2022-11-03T08:18:06.037Z,3.57
2022-11-03T08:23:25.385Z,4.17
2022-11-03T08:28:29.196Z,4.20
2022-11-03T08:33:33.574Z,4.40
2022-11-03T08:38:36.909Z,4.97
2022-11-03T08:43:40.127Z,4.23
2022-11-03T08:48:43.087Z,4.10
2022-11-03T08:53:50.652Z,4.17
2022-11-03T08:58:53.778Z,5.67
2022-11-03T09:03:56.752Z,4.67
2022-11-03T09:14:23.450Z,4.70
2022-11-03T09:19:26.252Z,2.97
2022-11-03T09:24:29.439Z,2.77
2022-11-03T09:29:51.677Z,3.60
2022-11-03T09:34:55.487Z,3.00
2022-11-03T09:39:59.016Z,3.47
2022-11-03T09:45:02.249Z,2.20
2022-11-03T09:50:06.171Z,2.87
2022-11-03T09:55:23.309Z,2.57
2022-11-03T10:00:27.548Z,2.13
2022-11-03T10:05:33.853Z,2.30
2022-11-03T10:10:37.927Z,3.03
2022-11-03T10:15:42.343Z,1.90
2022-11-03T10:20:45.486Z,2.93
2022-11-03T10:25:48.480Z,2.23
2022-11-03T10:31:10.520Z,2.03
2022-11-03T10:36:16.934Z,2.10
2022-11-03T10:41:21.149Z,2.70
2022-11-03T10:46:48.566Z,2.20
2022-11-03T10:51:52.750Z,2.80
2022-11-03T10:56:55.895Z,3.17
2022-11-03T11:01:59.623Z,2.00
2022-11-03T11:07:04.012Z,2.13
2022-11-03T11:12:16.428Z,2.10
2022-11-03T11:17:37.720Z,2.00
2022-11-03T11:22:40.985Z,2.30
2022-11-03T11:27:44.070Z,1.97
2022-11-03T11:32:50.673Z,4.83
2022-11-03T11:37:54.449Z,2.50
2022-11-03T11:43:11.180Z,2.70
2022-11-03T11:48:19.134Z,2.87
2022-11-03T11:53:26.273Z,3.37
2022-11-03T11:58:43.679Z,2.87
2022-11-03T12:03:46.857Z,3.03
2022-11-03T12:08:49.946Z,3.97
2022-11-03T12:13:53.191Z,2.60
2022-11-03T12:18:56.748Z,3.13
2022-11-03T12:23:59.492Z,2.83
2022-11-03T12:29:02.575Z,3.00
2022-11-03T12:34:05.689Z,2.73
2022-11-03T12:39:08.683Z,3.40
2022-11-03T12:44:11.776Z,3.10
2022-11-03T12:49:14.701Z,3.33
2022-11-03T12:54:17.662Z,4.30
2022-11-03T12:59:20.703Z,3.20
2022-11-03T13:04:23.704Z,3.40
2022-11-03T13:09:26.694Z,2.83
2022-11-03T13:14:29.723Z,3.07
2022-11-03T13:19:32.875Z,2.97
2022-11-03T13:24:35.926Z,4.20
2022-11-03T13:29:39.175Z,4.27
2022-11-03T13:34:42.220Z,3.77
2022-11-03T13:39:45.132Z,4.20
2022-11-03T13:44:48.125Z,3.47
2022-11-03T13:50:13.241Z,4.40
2022-11-03T14:00:39.628Z,3.40
2022-11-03T14:05:42.370Z,3.43
2022-11-03T14:10:45.240Z,3.50
2022-11-03T14:15:48.013Z,3.37
2022-11-03T14:20:50.971Z,5.10
2022-11-03T14:26:06.281Z,5.50
2022-11-03T14:31:16.692Z,6.33
2022-11-03T14:36:19.866Z,4.43
2022-11-03T14:41:41.678Z,7.70
2022-11-03T14:46:44.701Z,5.20
2022-11-03T14:51:47.960Z,6.40
2022-11-03T14:56:51.170Z,5.90
2022-11-03T15:01:54.742Z,6.43
2022-11-03T15:06:57.778Z,6.23
2022-11-03T15:12:00.523Z,5.90
2022-11-03T15:17:05.544Z,8.07
2022-11-03T15:22:08.905Z,7.03
2022-11-03T15:27:12.106Z,7.17
2022-11-03T15:32:15.477Z,7.90
2022-11-03T15:37:18.605Z,7.53
2022-11-03T15:42:21.485Z,10.47
2022-11-03T15:47:26.954Z,8.67
2022-11-03T15:52:32.259Z,8.80
2022-11-03T15:57:35.433Z,11.83
2022-11-03T16:02:41.744Z,12.73
2022-11-03T16:07:45.047Z,15.50
2022-11-03T16:12:48.701Z,13.03
2022-11-03T16:17:51.793Z,12.40
2022-11-03T16:22:54.953Z,13.00
2022-11-03T16:27:58.165Z,12.97
2022-11-03T16:33:01.560Z,10.80
2022-11-03T16:38:04.615Z,11.50
2022-11-03T16:43:08.100Z,12.90
2022-11-03T16:48:11.404Z,11.43
2022-11-03T16:53:14.382Z,11.33
2022-11-03T16:58:18.083Z,11.40
2022-11-03T17:03:20.892Z,12.57
2022-11-03T17:08:52.287Z,12.87
2022-11-03T17:13:47.377Z,13.10
2022-11-03T17:18:50.653Z,14.47
2022-11-03T17:23:54.017Z,24.30
2022-11-03T17:28:57.582Z,16.50
2022-11-03T17:34:01.376Z,31.23
2022-11-03T17:39:04.247Z,17.23
2022-11-03T17:44:13.607Z,15.83
2022-11-03T17:49:16.686Z,16.10
2022-11-03T17:54:19.610Z,15.43
2022-11-03T17:59:22.755Z,14.83
2022-11-03T18:04:27.852Z,15.80
2022-11-03T18:09:30.999Z,15.37
2022-11-03T18:14:34.079Z,17.50
2022-11-03T18:19:37.158Z,18.63
2022-11-03T18:24:40.510Z,17.20
2022-11-03T18:29:43.479Z,17.87
2022-11-03T18:34:46.840Z,18.00
2022-11-03T18:39:50.201Z,15.87
2022-11-03T18:44:53.046Z,17.23
2022-11-03T18:49:55.920Z,23.50
2022-11-03T18:54:58.869Z,18.47
2022-11-03T19:00:02.674Z,18.67
2022-11-03T19:05:12.496Z,25.43
2022-11-03T19:10:21.925Z,18.53
2022-11-03T19:15:25.140Z,19.77
2022-11-03T19:20:28.690Z,19.57
2022-11-03T19:25:31.900Z,20.47
2022-11-03T19:30:34.924Z,19.57
2022-11-03T19:35:37.818Z,19.63
2022-11-03T19:41:00.548Z,23.77
2022-11-03T19:46:04.530Z,18.10
2022-11-03T19:51:07.743Z,20.87
2022-11-03T19:56:10.667Z,19.70
2022-11-03T20:01:13.828Z,19.73
2022-11-03T20:06:19.416Z,19.77
2022-11-03T20:11:23.181Z,17.90
2022-11-03T20:16:28.634Z,18.13
2022-11-03T20:21:34.493Z,18.60
2022-11-03T20:26:37.569Z,16.43
2022-11-03T20:31:42.189Z,14.83
2022-11-03T20:36:45.441Z,14.77
2022-11-03T20:41:50.960Z,14.47
2022-11-03T20:46:53.804Z,15.10
2022-11-03T20:51:57.078Z,16.17
2022-11-03T20:57:00.153Z,17.30
2022-11-03T21:02:11.501Z,14.97
2022-11-03T21:07:14.547Z,15.83
2022-11-03T21:12:17.715Z,14.03
2022-11-03T21:17:39.103Z,14.63
2022-11-03T21:22:52.335Z,14.47
2022-11-03T21:27:56.452Z,13.50
2022-11-03T21:32:59.411Z,13.63
2022-11-03T21:38:02.723Z,13.00
2022-11-03T21:43:24.626Z,12.80
2022-11-03T21:48:45.879Z,13.97
2022-11-03T21:53:49.135Z,12.80
2022-11-03T21:58:51.936Z,12.70
2022-11-03T22:03:56.795Z,12.00
2022-11-03T22:09:02.535Z,12.43
2022-11-03T22:14:05.544Z,13.83
2022-11-03T22:19:45.139Z,13.23
2022-11-03T22:25:06.808Z,13.97
2022-11-03T22:30:29.001Z,16.20
2022-11-03T22:35:53.660Z,14.57
2022-11-03T22:41:15.309Z,15.07
2022-11-03T22:46:18.361Z,15.07
2022-11-03T22:51:21.192Z,15.40
2022-11-03T22:56:25.773Z,14.03
2022-11-03T23:01:29.504Z,14.50
2022-11-03T23:06:35.989Z,12.97
2022-11-03T23:11:38.993Z,13.57
2022-11-03T23:16:43.667Z,13.47
2022-11-03T23:21:48.381Z,13.83
2022-11-03T23:26:51.488Z,13.27
2022-11-03T23:31:54.581Z,14.40
2022-11-03T23:36:58.764Z,14.53
2022-11-03T23:42:01.721Z,15.33
2022-11-03T23:47:23.026Z,14.37
2022-11-03T23:52:26.143Z,14.67
2022-11-03T23:57:49.520Z,14.67
